sensor_id;sensor_type;location;lat;lon;timestamp;P1;durP1;ratioP1;P2;durP2;ratioP2
15192;SDS011;7697;51.630;7.484;2023-03-31T00:00:00;3.08;;;1.35;;
15192;SDS011;7697;51.630;7.484;2023-03-31T00:05:12;3.17;;;1.65;;
15192;SDS011;7697;51.630;7.484;2023-03-31T00:10:17;5.10;;;1.95;;
15192;SDS011;7697;51.630;7.484;2023-03-31T00:15:19;4.35;;;1.90;;
15192;SDS011;7697;51.630;7.484;2023-03-31T00:20:22;2.85;;;1.60;;
15192;SDS011;7697;51.630;7.484;2023-03-31T00:25:24;3.00;;;1.60;;
15192;SDS011;7697;51.630;7.484;2023-03-31T00:30:25;3.83;;;1.30;;
15192;SDS011;7697;51.630;7.484;2023-03-31T00:35:29;2.65;;;1.40;;
15192;SDS011;7697;51.630;7.484;2023-03-31T00:40:31;3.67;;;1.73;;
15192;SDS011;7697;51.630;7.484;2023-03-31T00:45:32;2.70;;;1.40;;
15192;SDS011;7697;51.630;7.484;2023-03-31T00:50:39;4.63;;;1.60;;
15192;SDS011;7697;51.630;7.484;2023-03-31T00:55:48;4.28;;;1.70;;
15192;SDS011;7697;51.630;7.484;2023-03-31T01:00:53;3.80;;;1.83;;
15192;SDS011;7697;51.630;7.484;2023-03-31T01:06:00;3.67;;;1.50;;
15192;SDS011;7697;51.630;7.484;2023-03-31T01:11:05;4.18;;;1.38;;
15192;SDS011;7697;51.630;7.484;2023-03-31T01:16:09;3.35;;;1.58;;
15192;SDS011;7697;51.630;7.484;2023-03-31T01:21:24;4.20;;;1.80;;
15192;SDS011;7697;51.630;7.484;2023-03-31T01:26:50;5.88;;;1.98;;
15192;SDS011;7697;51.630;7.484;2023-03-31T01:38:03;3.05;;;1.63;;
15192;SDS011;7697;51.630;7.484;2023-03-31T01:43:22;4.45;;;1.80;;
15192;SDS011;7697;51.630;7.484;2023-03-31T01:48:30;7.30;;;2.00;;
15192;SDS011;7697;51.630;7.484;2023-03-31T01:53:42;5.78;;;1.77;;
15192;SDS011;7697;51.630;7.484;2023-03-31T01:58:51;5.13;;;1.92;;
15192;SDS011;7697;51.630;7.484;2023-03-31T02:03:57;4.35;;;1.60;;
15192;SDS011;7697;51.630;7.484;2023-03-31T02:09:05;2.58;;;1.35;;
15192;SDS011;7697;51.630;7.484;2023-03-31T02:14:13;3.50;;;1.60;;
15192;SDS011;7697;51.630;7.484;2023-03-31T02:19:20;2.90;;;1.67;;
15192;SDS011;7697;51.630;7.484;2023-03-31T02:24:24;5.30;;;1.92;;
15192;SDS011;7697;51.630;7.484;2023-03-31T02:29:29;5.85;;;2.20;;
15192;SDS011;7697;51.630;7.484;2023-03-31T02:34:31;4.07;;;1.88;;
15192;SDS011;7697;51.630;7.484;2023-03-31T02:39:34;2.92;;;1.60;;
15192;SDS011;7697;51.630;7.484;2023-03-31T02:44:41;3.97;;;1.90;;
15192;SDS011;7697;51.630;7.484;2023-03-31T02:49:45;4.05;;;1.63;;
15192;SDS011;7697;51.630;7.484;2023-03-31T02:55:02;6.13;;;1.80;;
15192;SDS011;7697;51.630;7.484;2023-03-31T03:00:23;5.03;;;2.15;;
15192;SDS011;7697;51.630;7.484;2023-03-31T03:05:34;3.80;;;1.83;;
15192;SDS011;7697;51.630;7.484;2023-03-31T03:10:48;4.93;;;1.90;;
15192;SDS011;7697;51.630;7.484;2023-03-31T03:16:02;4.80;;;2.00;;
15192;SDS011;7697;51.630;7.484;2023-03-31T03:21:08;4.38;;;1.70;;
15192;SDS011;7697;51.630;7.484;2023-03-31T03:26:10;4.82;;;1.75;;
15192;SDS011;7697;51.630;7.484;2023-03-31T03:31:13;6.13;;;2.05;;
15192;SDS011;7697;51.630;7.484;2023-03-31T03:36:15;3.70;;;1.60;;
15192;SDS011;7697;51.630;7.484;2023-03-31T03:41:18;7.07;;;2.30;;
15192;SDS011;7697;51.630;7.484;2023-03-31T03:46:21;4.18;;;2.00;;
15192;SDS011;7697;51.630;7.484;2023-03-31T03:51:23;4.10;;;2.03;;
15192;SDS011;7697;51.630;7.484;2023-03-31T03:56:25;4.25;;;1.95;;
15192;SDS011;7697;51.630;7.484;2023-03-31T04:01:28;3.35;;;1.70;;
15192;SDS011;7697;51.630;7.484;2023-03-31T04:06:30;4.88;;;2.10;;
15192;SDS011;7697;51.630;7.484;2023-03-31T04:11:32;6.00;;;2.20;;
15192;SDS011;7697;51.630;7.484;2023-03-31T04:16:36;3.80;;;1.80;;
15192;SDS011;7697;51.630;7.484;2023-03-31T04:21:39;3.67;;;1.75;;
15192;SDS011;7697;51.630;7.484;2023-03-31T04:26:44;4.82;;;1.95;;
15192;SDS011;7697;51.630;7.484;2023-03-31T04:31:51;6.50;;;1.77;;
15192;SDS011;7697;51.630;7.484;2023-03-31T04:36:57;8.90;;;2.60;;
15192;SDS011;7697;51.630;7.484;2023-03-31T04:42:01;6.57;;;1.95;;
15192;SDS011;7697;51.630;7.484;2023-03-31T04:47:05;6.20;;;1.83;;
15192;SDS011;7697;51.630;7.484;2023-03-31T04:52:06;5.15;;;1.88;;
15192;SDS011;7697;51.630;7.484;2023-03-31T04:57:08;3.33;;;1.67;;
15192;SDS011;7697;51.630;7.484;2023-03-31T05:02:11;5.15;;;1.80;;
15192;SDS011;7697;51.630;7.484;2023-03-31T05:07:14;5.18;;;1.77;;
15192;SDS011;7697;51.630;7.484;2023-03-31T05:12:16;6.20;;;2.00;;
15192;SDS011;7697;51.630;7.484;2023-03-31T05:17:19;6.00;;;1.90;;
15192;SDS011;7697;51.630;7.484;2023-03-31T05:22:21;4.78;;;1.65;;
15192;SDS011;7697;51.630;7.484;2023-03-31T05:27:23;5.68;;;2.40;;
15192;SDS011;7697;51.630;7.484;2023-03-31T05:32:26;5.30;;;1.85;;
15192;SDS011;7697;51.630;7.484;2023-03-31T05:37:29;4.72;;;1.88;;
15192;SDS011;7697;51.630;7.484;2023-03-31T05:42:30;7.68;;;2.47;;
15192;SDS011;7697;51.630;7.484;2023-03-31T05:47:33;3.20;;;1.83;;
15192;SDS011;7697;51.630;7.484;2023-03-31T05:52:35;4.00;;;1.80;;
15192;SDS011;7697;51.630;7.484;2023-03-31T05:57:37;3.53;;;1.77;;
15192;SDS011;7697;51.630;7.484;2023-03-31T06:02:40;2.90;;;1.50;;
15192;SDS011;7697;51.630;7.484;2023-03-31T06:07:42;6.82;;;2.13;;
15192;SDS011;7697;51.630;7.484;2023-03-31T06:12:44;4.55;;;1.77;;
15192;SDS011;7697;51.630;7.484;2023-03-31T06:17:47;5.13;;;1.70;;
15192;SDS011;7697;51.630;7.484;2023-03-31T06:22:48;7.35;;;1.90;;
15192;SDS011;7697;51.630;7.484;2023-03-31T06:27:50;5.10;;;1.80;;
15192;SDS011;7697;51.630;7.484;2023-03-31T06:32:53;3.90;;;1.88;;
15192;SDS011;7697;51.630;7.484;2023-03-31T06:37:55;2.88;;;1.40;;
15192;SDS011;7697;51.630;7.484;2023-03-31T06:42:57;3.90;;;1.33;;
15192;SDS011;7697;51.630;7.484;2023-03-31T06:48:00;3.35;;;1.60;;
15192;SDS011;7697;51.630;7.484;2023-03-31T06:53:02;4.18;;;1.40;;
15192;SDS011;7697;51.630;7.484;2023-03-31T06:58:04;6.85;;;1.88;;
15192;SDS011;7697;51.630;7.484;2023-03-31T07:03:08;3.30;;;1.73;;
15192;SDS011;7697;51.630;7.484;2023-03-31T07:08:09;3.83;;;1.73;;
15192;SDS011;7697;51.630;7.484;2023-03-31T07:13:11;3.50;;;1.50;;
15192;SDS011;7697;51.630;7.484;2023-03-31T07:18:16;3.63;;;1.50;;
15192;SDS011;7697;51.630;7.484;2023-03-31T07:23:19;3.70;;;1.65;;
15192;SDS011;7697;51.630;7.484;2023-03-31T07:28:20;2.08;;;1.35;;
15192;SDS011;7697;51.630;7.484;2023-03-31T07:33:24;4.60;;;1.30;;
15192;SDS011;7697;51.630;7.484;2023-03-31T07:38:26;3.92;;;1.50;;
15192;SDS011;7697;51.630;7.484;2023-03-31T07:43:28;2.65;;;1.30;;
15192;SDS011;7697;51.630;7.484;2023-03-31T07:48:31;2.97;;;1.23;;
15192;SDS011;7697;51.630;7.484;2023-03-31T07:53:33;3.42;;;1.50;;
15192;SDS011;7697;51.630;7.484;2023-03-31T07:58:35;4.40;;;1.33;;
15192;SDS011;7697;51.630;7.484;2023-03-31T08:03:38;4.05;;;1.40;;
15192;SDS011;7697;51.630;7.484;2023-03-31T08:08:39;2.10;;;1.50;;
15192;SDS011;7697;51.630;7.484;2023-03-31T08:13:42;2.13;;;1.30;;
15192;SDS011;7697;51.630;7.484;2023-03-31T08:18:45;1.65;;;1.20;;
15192;SDS011;7697;51.630;7.484;2023-03-31T08:23:47;2.95;;;1.73;;
15192;SDS011;7697;51.630;7.484;2023-03-31T08:28:49;2.10;;;1.60;;
15192;SDS011;7697;51.630;7.484;2023-03-31T08:33:52;3.40;;;1.48;;
15192;SDS011;7697;51.630;7.484;2023-03-31T08:38:53;1.42;;;1.10;;
15192;SDS011;7697;51.630;7.484;2023-03-31T08:43:55;3.00;;;1.38;;
15192;SDS011;7697;51.630;7.484;2023-03-31T08:49:04;3.13;;;1.55;;
15192;SDS011;7697;51.630;7.484;2023-03-31T08:54:10;3.42;;;1.65;;
15192;SDS011;7697;51.630;7.484;2023-03-31T08:59:17;4.68;;;1.50;;
15192;SDS011;7697;51.630;7.484;2023-03-31T09:04:40;2.67;;;1.50;;
15192;SDS011;7697;51.630;7.484;2023-03-31T09:09:51;2.53;;;1.52;;
15192;SDS011;7697;51.630;7.484;2023-03-31T09:15:03;4.25;;;1.60;;
15192;SDS011;7697;51.630;7.484;2023-03-31T09:20:12;4.72;;;1.80;;
15192;SDS011;7697;51.630;7.484;2023-03-31T09:25:20;2.38;;;1.42;;
15192;SDS011;7697;51.630;7.484;2023-03-31T09:30:27;5.65;;;1.80;;
15192;SDS011;7697;51.630;7.484;2023-03-31T09:35:32;2.42;;;1.58;;
15192;SDS011;7697;51.630;7.484;2023-03-31T09:40:34;3.80;;;1.83;;
15192;SDS011;7697;51.630;7.484;2023-03-31T09:45:35;4.13;;;1.58;;
15192;SDS011;7697;51.630;7.484;2023-03-31T09:50:40;4.18;;;1.60;;
15192;SDS011;7697;51.630;7.484;2023-03-31T09:55:46;3.05;;;1.58;;
15192;SDS011;7697;51.630;7.484;2023-03-31T10:00:56;3.30;;;1.63;;
15192;SDS011;7697;51.630;7.484;2023-03-31T10:06:02;2.00;;;1.60;;
15192;SDS011;7697;51.630;7.484;2023-03-31T10:11:10;2.60;;;1.60;;
15192;SDS011;7697;51.630;7.484;2023-03-31T10:16:13;4.20;;;1.88;;
15192;SDS011;7697;51.630;7.484;2023-03-31T10:21:23;3.53;;;1.77;;
15192;SDS011;7697;51.630;7.484;2023-03-31T10:26:26;5.82;;;2.15;;
15192;SDS011;7697;51.630;7.484;2023-03-31T10:31:33;2.83;;;1.80;;
15192;SDS011;7697;51.630;7.484;2023-03-31T10:36:38;5.88;;;1.90;;
15192;SDS011;7697;51.630;7.484;2023-03-31T10:41:49;3.95;;;1.83;;
15192;SDS011;7697;51.630;7.484;2023-03-31T10:46:52;7.05;;;1.85;;
15192;SDS011;7697;51.630;7.484;2023-03-31T10:51:55;4.07;;;1.90;;
15192;SDS011;7697;51.630;7.484;2023-03-31T10:56:59;3.55;;;1.83;;
15192;SDS011;7697;51.630;7.484;2023-03-31T11:02:13;6.03;;;2.25;;
15192;SDS011;7697;51.630;7.484;2023-03-31T11:07:42;3.47;;;1.45;;
15192;SDS011;7697;51.630;7.484;2023-03-31T11:12:55;3.25;;;1.65;;
15192;SDS011;7697;51.630;7.484;2023-03-31T11:18:04;5.22;;;1.90;;
15192;SDS011;7697;51.630;7.484;2023-03-31T11:23:16;7.47;;;2.85;;
15192;SDS011;7697;51.630;7.484;2023-03-31T11:28:31;6.72;;;3.83;;
15192;SDS011;7697;51.630;7.484;2023-03-31T11:33:47;8.52;;;2.60;;
15192;SDS011;7697;51.630;7.484;2023-03-31T11:39:11;8.55;;;2.80;;
15192;SDS011;7697;51.630;7.484;2023-03-31T11:44:21;7.50;;;2.55;;
15192;SDS011;7697;51.630;7.484;2023-03-31T11:49:25;5.68;;;2.20;;
15192;SDS011;7697;51.630;7.484;2023-03-31T11:54:32;7.32;;;2.50;;
15192;SDS011;7697;51.630;7.484;2023-03-31T11:59:37;10.77;;;3.80;;
15192;SDS011;7697;51.630;7.484;2023-03-31T12:04:41;9.60;;;3.97;;
15192;SDS011;7697;51.630;7.484;2023-03-31T12:09:49;8.23;;;3.15;;
15192;SDS011;7697;51.630;7.484;2023-03-31T12:15:05;6.78;;;2.90;;
15192;SDS011;7697;51.630;7.484;2023-03-31T12:20:17;5.97;;;2.58;;
15192;SDS011;7697;51.630;7.484;2023-03-31T12:25:32;7.03;;;2.72;;
15192;SDS011;7697;51.630;7.484;2023-03-31T12:30:43;5.55;;;2.42;;
15192;SDS011;7697;51.630;7.484;2023-03-31T12:35:51;6.93;;;3.03;;
15192;SDS011;7697;51.630;7.484;2023-03-31T12:41:13;4.65;;;2.00;;
15192;SDS011;7697;51.630;7.484;2023-03-31T12:46:23;4.50;;;1.80;;
15192;SDS011;7697;51.630;7.484;2023-03-31T12:51:54;5.00;;;2.15;;
15192;SDS011;7697;51.630;7.484;2023-03-31T12:57:18;5.68;;;2.03;;
15192;SDS011;7697;51.630;7.484;2023-03-31T13:02:23;9.00;;;2.05;;
15192;SDS011;7697;51.630;7.484;2023-03-31T13:07:33;6.32;;;2.65;;
15192;SDS011;7697;51.630;7.484;2023-03-31T13:12:39;8.57;;;2.40;;
15192;SDS011;7697;51.630;7.484;2023-03-31T13:17:41;10.40;;;2.97;;
15192;SDS011;7697;51.630;7.484;2023-03-31T13:22:58;6.95;;;2.42;;
15192;SDS011;7697;51.630;7.484;2023-03-31T13:28:12;6.47;;;2.20;;
15192;SDS011;7697;51.630;7.484;2023-03-31T13:33:18;7.88;;;3.30;;
15192;SDS011;7697;51.630;7.484;2023-03-31T13:38:26;7.50;;;2.70;;
15192;SDS011;7697;51.630;7.484;2023-03-31T13:55:04;4.35;;;1.60;;
15192;SDS011;7697;51.630;7.484;2023-03-31T14:00:31;7.45;;;1.98;;
15192;SDS011;7697;51.630;7.484;2023-03-31T14:05:41;4.95;;;2.15;;
15192;SDS011;7697;51.630;7.484;2023-03-31T14:10:45;4.15;;;1.98;;
15192;SDS011;7697;51.630;7.484;2023-03-31T14:15:49;5.47;;;1.83;;
15192;SDS011;7697;51.630;7.484;2023-03-31T14:21:11;7.28;;;2.25;;
15192;SDS011;7697;51.630;7.484;2023-03-31T14:26:27;7.93;;;2.85;;
15192;SDS011;7697;51.630;7.484;2023-03-31T14:31:48;5.78;;;2.10;;
15192;SDS011;7697;51.630;7.484;2023-03-31T14:37:00;6.28;;;2.40;;
15192;SDS011;7697;51.630;7.484;2023-03-31T14:42:08;6.05;;;2.67;;
15192;SDS011;7697;51.630;7.484;2023-03-31T14:47:15;6.10;;;2.08;;
15192;SDS011;7697;51.630;7.484;2023-03-31T14:52:21;3.53;;;1.88;;
15192;SDS011;7697;51.630;7.484;2023-03-31T14:57:24;3.40;;;1.67;;
15192;SDS011;7697;51.630;7.484;2023-03-31T15:02:33;4.03;;;1.70;;
15192;SDS011;7697;51.630;7.484;2023-03-31T15:07:37;5.57;;;1.98;;
15192;SDS011;7697;51.630;7.484;2023-03-31T15:12:41;2.78;;;1.63;;
15192;SDS011;7697;51.630;7.484;2023-03-31T15:17:45;5.22;;;2.40;;
15192;SDS011;7697;51.630;7.484;2023-03-31T15:22:48;4.70;;;2.20;;
15192;SDS011;7697;51.630;7.484;2023-03-31T15:27:50;4.25;;;1.85;;
15192;SDS011;7697;51.630;7.484;2023-03-31T15:32:57;5.45;;;2.13;;
15192;SDS011;7697;51.630;7.484;2023-03-31T15:38:01;5.20;;;2.00;;
15192;SDS011;7697;51.630;7.484;2023-03-31T15:43:06;5.03;;;1.85;;
15192;SDS011;7697;51.630;7.484;2023-03-31T15:48:19;3.72;;;1.70;;
15192;SDS011;7697;51.630;7.484;2023-03-31T15:53:28;3.97;;;1.98;;
15192;SDS011;7697;51.630;7.484;2023-03-31T15:58:52;5.47;;;2.08;;
15192;SDS011;7697;51.630;7.484;2023-03-31T16:03:57;4.28;;;1.90;;
15192;SDS011;7697;51.630;7.484;2023-03-31T16:09:00;6.72;;;2.40;;
15192;SDS011;7697;51.630;7.484;2023-03-31T16:14:06;7.50;;;2.63;;
15192;SDS011;7697;51.630;7.484;2023-03-31T16:19:15;4.50;;;1.70;;
15192;SDS011;7697;51.630;7.484;2023-03-31T16:24:19;4.55;;;1.83;;
15192;SDS011;7697;51.630;7.484;2023-03-31T16:29:22;5.03;;;1.80;;
15192;SDS011;7697;51.630;7.484;2023-03-31T16:34:27;6.65;;;2.15;;
15192;SDS011;7697;51.630;7.484;2023-03-31T16:39:31;3.83;;;1.67;;
15192;SDS011;7697;51.630;7.484;2023-03-31T16:44:33;4.00;;;1.70;;
15192;SDS011;7697;51.630;7.484;2023-03-31T16:49:36;4.20;;;1.85;;
15192;SDS011;7697;51.630;7.484;2023-03-31T16:54:38;5.38;;;1.60;;
15192;SDS011;7697;51.630;7.484;2023-03-31T16:59:40;4.15;;;1.60;;
15192;SDS011;7697;51.630;7.484;2023-03-31T17:04:43;4.53;;;1.40;;
15192;SDS011;7697;51.630;7.484;2023-03-31T17:09:45;3.72;;;1.52;;
15192;SDS011;7697;51.630;7.484;2023-03-31T17:14:46;3.25;;;1.30;;
15192;SDS011;7697;51.630;7.484;2023-03-31T17:19:50;2.30;;;1.30;;
15192;SDS011;7697;51.630;7.484;2023-03-31T17:24:52;1.90;;;1.58;;
15192;SDS011;7697;51.630;7.484;2023-03-31T17:29:57;4.93;;;1.42;;
15192;SDS011;7697;51.630;7.484;2023-03-31T17:35:00;4.30;;;1.42;;
15192;SDS011;7697;51.630;7.484;2023-03-31T17:40:02;2.75;;;1.67;;
15192;SDS011;7697;51.630;7.484;2023-03-31T17:45:05;4.95;;;2.20;;
15192;SDS011;7697;51.630;7.484;2023-03-31T17:50:10;3.05;;;1.65;;
15192;SDS011;7697;51.630;7.484;2023-03-31T17:55:12;2.95;;;1.88;;
15192;SDS011;7697;51.630;7.484;2023-03-31T18:00:14;5.45;;;2.00;;
15192;SDS011;7697;51.630;7.484;2023-03-31T18:05:17;3.72;;;1.63;;
15192;SDS011;7697;51.630;7.484;2023-03-31T18:10:19;2.10;;;1.38;;
15192;SDS011;7697;51.630;7.484;2023-03-31T18:15:21;4.40;;;2.15;;
15192;SDS011;7697;51.630;7.484;2023-03-31T18:20:25;3.38;;;2.40;;
15192;SDS011;7697;51.630;7.484;2023-03-31T18:25:27;3.05;;;1.50;;
15192;SDS011;7697;51.630;7.484;2023-03-31T18:30:28;4.53;;;1.73;;
15192;SDS011;7697;51.630;7.484;2023-03-31T18:35:31;3.60;;;1.70;;
15192;SDS011;7697;51.630;7.484;2023-03-31T18:40:33;3.65;;;1.30;;
15192;SDS011;7697;51.630;7.484;2023-03-31T18:45:35;2.53;;;1.63;;
15192;SDS011;7697;51.630;7.484;2023-03-31T18:50:39;4.78;;;1.80;;
15192;SDS011;7697;51.630;7.484;2023-03-31T18:55:40;3.10;;;1.70;;
15192;SDS011;7697;51.630;7.484;2023-03-31T19:00:42;2.25;;;1.42;;
15192;SDS011;7697;51.630;7.484;2023-03-31T19:05:45;4.03;;;1.52;;
15192;SDS011;7697;51.630;7.484;2023-03-31T19:10:47;4.38;;;1.92;;
15192;SDS011;7697;51.630;7.484;2023-03-31T19:15:49;3.58;;;2.20;;
15192;SDS011;7697;51.630;7.484;2023-03-31T19:20:52;5.07;;;2.80;;
15192;SDS011;7697;51.630;7.484;2023-03-31T19:25:55;3.42;;;1.95;;
15192;SDS011;7697;51.630;7.484;2023-03-31T19:31:01;3.30;;;1.60;;
15192;SDS011;7697;51.630;7.484;2023-03-31T19:36:05;5.00;;;1.88;;
15192;SDS011;7697;51.630;7.484;2023-03-31T19:41:06;3.58;;;2.05;;
15192;SDS011;7697;51.630;7.484;2023-03-31T19:46:10;3.63;;;1.85;;
15192;SDS011;7697;51.630;7.484;2023-03-31T19:51:13;2.90;;;1.80;;
15192;SDS011;7697;51.630;7.484;2023-03-31T19:56:15;3.90;;;1.90;;
15192;SDS011;7697;51.630;7.484;2023-03-31T20:01:19;3.72;;;2.22;;
15192;SDS011;7697;51.630;7.484;2023-03-31T20:06:24;4.60;;;2.30;;
15192;SDS011;7697;51.630;7.484;2023-03-31T20:11:28;4.90;;;2.33;;
15192;SDS011;7697;51.630;7.484;2023-03-31T20:16:31;5.07;;;2.10;;
15192;SDS011;7697;51.630;7.484;2023-03-31T20:21:35;4.30;;;2.22;;
15192;SDS011;7697;51.630;7.484;2023-03-31T20:26:38;3.22;;;1.77;;
15192;SDS011;7697;51.630;7.484;2023-03-31T20:31:40;4.93;;;2.78;;
15192;SDS011;7697;51.630;7.484;2023-03-31T20:36:44;4.50;;;1.98;;
15192;SDS011;7697;51.630;7.484;2023-03-31T20:41:48;3.25;;;1.40;;
15192;SDS011;7697;51.630;7.484;2023-03-31T20:46:50;3.22;;;1.83;;
15192;SDS011;7697;51.630;7.484;2023-03-31T20:51:53;4.43;;;1.30;;
15192;SDS011;7697;51.630;7.484;2023-03-31T20:56:55;4.25;;;1.40;;
15192;SDS011;7697;51.630;7.484;2023-03-31T21:02:00;2.60;;;1.30;;
15192;SDS011;7697;51.630;7.484;2023-03-31T21:07:03;2.25;;;1.30;;
15192;SDS011;7697;51.630;7.484;2023-03-31T21:12:05;4.82;;;1.55;;
15192;SDS011;7697;51.630;7.484;2023-03-31T21:17:07;3.25;;;1.48;;
15192;SDS011;7697;51.630;7.484;2023-03-31T21:22:10;3.55;;;1.60;;
15192;SDS011;7697;51.630;7.484;2023-03-31T21:27:12;3.42;;;1.60;;
15192;SDS011;7697;51.630;7.484;2023-03-31T21:32:14;4.15;;;1.85;;
15192;SDS011;7697;51.630;7.484;2023-03-31T21:37:17;2.40;;;1.40;;
15192;SDS011;7697;51.630;7.484;2023-03-31T21:42:18;1.95;;;1.30;;
15192;SDS011;7697;51.630;7.484;2023-03-31T21:47:21;2.35;;;1.70;;
15192;SDS011;7697;51.630;7.484;2023-03-31T21:52:24;3.08;;;1.50;;
15192;SDS011;7697;51.630;7.484;2023-03-31T21:57:26;3.80;;;1.52;;
15192;SDS011;7697;51.630;7.484;2023-03-31T22:02:28;3.80;;;1.70;;
15192;SDS011;7697;51.630;7.484;2023-03-31T22:07:33;3.60;;;1.70;;
15192;SDS011;7697;51.630;7.484;2023-03-31T22:12:35;2.42;;;1.65;;
15192;SDS011;7697;51.630;7.484;2023-03-31T22:17:38;2.63;;;1.30;;
15192;SDS011;7697;51.630;7.484;2023-03-31T22:22:42;4.32;;;2.00;;
15192;SDS011;7697;51.630;7.484;2023-03-31T22:27:44;3.38;;;1.73;;
15192;SDS011;7697;51.630;7.484;2023-03-31T22:32:45;3.47;;;1.98;;
15192;SDS011;7697;51.630;7.484;2023-03-31T22:37:49;3.10;;;1.77;;
15192;SDS011;7697;51.630;7.484;2023-03-31T22:42:50;3.80;;;2.15;;
15192;SDS011;7697;51.630;7.484;2023-03-31T22:47:53;4.35;;;2.00;;
15192;SDS011;7697;51.630;7.484;2023-03-31T22:52:57;3.03;;;1.45;;
15192;SDS011;7697;51.630;7.484;2023-03-31T22:57:59;4.05;;;1.67;;
15192;SDS011;7697;51.630;7.484;2023-03-31T23:03:00;5.35;;;1.85;;
15192;SDS011;7697;51.630;7.484;2023-03-31T23:08:04;3.60;;;1.80;;
15192;SDS011;7697;51.630;7.484;2023-03-31T23:13:05;2.40;;;1.50;;
15192;SDS011;7697;51.630;7.484;2023-03-31T23:18:07;2.88;;;1.58;;
15192;SDS011;7697;51.630;7.484;2023-03-31T23:23:10;4.18;;;1.48;;
15192;SDS011;7697;51.630;7.484;2023-03-31T23:28:12;2.92;;;1.48;;
15192;SDS011;7697;51.630;7.484;2023-03-31T23:33:13;4.25;;;1.35;;
15192;SDS011;7697;51.630;7.484;2023-03-31T23:38:17;3.45;;;1.70;;
15192;SDS011;7697;51.630;7.484;2023-03-31T23:43:18;3.60;;;1.30;;
15192;SDS011;7697;51.630;7.484;2023-03-31T23:48:21;1.95;;;1.02;;
15192;SDS011;7697;51.630;7.484;2023-03-31T23:53:24;3.17;;;1.52;;
15192;SDS011;7697;51.630;7.484;2023-03-31T23:58:26;1.77;;;1.20;;
